createdAt,value
2022-11-13T00:00:38.234Z,7.50
2022-11-13T00:03:05.471Z,7.50
2022-11-13T00:05:32.080Z,7.50
2022-11-13T00:07:58.770Z,7.50
2022-11-13T00:10:25.450Z,7.50
2022-11-13T00:12:53.657Z,7.50
2022-11-13T00:15:20.535Z,7.40
2022-11-13T00:17:47.124Z,7.40
2022-11-13T00:20:13.695Z,7.40
2022-11-13T00:22:40.268Z,7.40
2022-11-13T00:25:07.192Z,7.40
2022-11-13T00:27:33.794Z,7.40
2022-11-13T00:30:00.402Z,7.40
2022-11-13T00:32:27.254Z,7.40
2022-11-13T00:34:53.863Z,7.50
2022-11-13T00:37:20.605Z,7.50
2022-11-13T00:39:47.357Z,7.50
2022-11-13T00:42:14.620Z,7.40
2022-11-13T00:44:41.342Z,7.40
2022-11-13T00:47:07.941Z,7.40
2022-11-13T00:49:34.510Z,7.50
2022-11-13T00:52:02.858Z,7.50
2022-11-13T00:54:29.590Z,7.40
2022-11-13T00:56:56.155Z,7.40
2022-11-13T00:59:22.716Z,7.40
2022-11-13T01:01:49.497Z,7.50
2022-11-13T01:04:16.099Z,7.40
2022-11-13T01:06:44.247Z,7.50
2022-11-13T01:09:10.858Z,7.50
2022-11-13T01:11:37.617Z,7.40
2022-11-13T01:14:04.233Z,7.40
2022-11-13T01:16:30.891Z,7.30
2022-11-13T01:18:57.560Z,7.30
2022-11-13T01:21:27.264Z,7.30
2022-11-13T01:23:54.618Z,7.40
2022-11-13T01:26:30.214Z,7.40
2022-11-13T01:28:59.457Z,7.40
2022-11-13T01:31:28.831Z,7.50
2022-11-13T01:33:56.775Z,7.50
2022-11-13T01:36:28.581Z,7.40
2022-11-13T01:38:55.500Z,7.50
2022-11-13T01:41:25.307Z,7.50
2022-11-13T01:43:54.671Z,7.50
2022-11-13T01:46:32.123Z,7.40
2022-11-13T01:49:15.236Z,7.40
2022-11-13T01:51:47.821Z,7.30
2022-11-13T01:54:20.663Z,7.30
2022-11-13T01:56:48.504Z,7.20
2022-11-13T01:59:21.517Z,7.30
2022-11-13T02:01:48.187Z,7.20
2022-11-13T02:04:15.140Z,7.10
2022-11-13T02:07:07.012Z,7.10
2022-11-13T02:09:40.789Z,7.10
2022-11-13T02:12:10.852Z,7.00
2022-11-13T02:14:47.725Z,7.00
2022-11-13T02:17:28.318Z,7.00
2022-11-13T02:19:58.752Z,7.00
2022-11-13T02:22:41.252Z,7.00
2022-11-13T02:25:10.142Z,7.00
2022-11-13T02:27:44.787Z,7.00
2022-11-13T02:30:33.016Z,7.00
2022-11-13T02:33:00.423Z,7.00
2022-11-13T02:35:29.002Z,7.10
2022-11-13T02:37:57.260Z,7.10
2022-11-13T02:40:24.882Z,7.00
2022-11-13T02:42:51.477Z,7.00
2022-11-13T02:45:18.528Z,7.00
2022-11-13T02:47:45.311Z,7.00
2022-11-13T02:50:12.787Z,7.00
2022-11-13T02:52:39.515Z,6.80
2022-11-13T02:55:06.837Z,6.80
2022-11-13T02:57:33.709Z,6.80
2022-11-13T03:00:00.645Z,6.80
2022-11-13T03:02:27.259Z,6.80
2022-11-13T03:07:41.254Z,6.90
2022-11-13T03:10:09.575Z,6.80
2022-11-13T03:12:36.338Z,6.80
2022-11-13T03:15:03.341Z,6.80
2022-11-13T03:17:33.210Z,6.80
2022-11-13T03:19:59.895Z,6.80
2022-11-13T03:22:27.358Z,6.80
2022-11-13T03:24:53.962Z,6.80
2022-11-13T03:27:20.535Z,6.70
2022-11-13T03:29:47.285Z,6.70
2022-11-13T03:32:14.051Z,6.70
2022-11-13T03:34:41.317Z,6.70
2022-11-13T03:37:08.469Z,6.70
2022-11-13T03:39:35.091Z,6.70
2022-11-13T03:42:01.695Z,6.70
2022-11-13T03:44:28.334Z,6.70
2022-11-13T03:46:55.009Z,6.60
2022-11-13T03:49:21.714Z,6.60
2022-11-13T03:51:48.302Z,6.60
2022-11-13T03:54:14.882Z,6.60
2022-11-13T03:56:41.455Z,6.50
2022-11-13T03:59:08.080Z,6.50
2022-11-13T04:01:34.838Z,6.50
2022-11-13T04:04:01.599Z,6.40
2022-11-13T04:06:28.197Z,6.40
2022-11-13T04:08:54.782Z,6.40
2022-11-13T04:11:21.584Z,6.40
2022-11-13T04:13:48.311Z,6.40
2022-11-13T04:16:15.055Z,6.40
2022-11-13T04:18:41.627Z,6.40
2022-11-13T04:21:08.943Z,6.30
2022-11-13T04:23:35.603Z,6.40
2022-11-13T04:26:02.175Z,6.40
2022-11-13T04:28:29.108Z,6.40
2022-11-13T04:30:56.524Z,6.30
2022-11-13T04:33:23.560Z,6.40
2022-11-13T04:35:50.426Z,6.50
2022-11-13T04:38:16.981Z,6.60
2022-11-13T04:40:43.869Z,6.60
2022-11-13T04:43:10.468Z,6.60
2022-11-13T04:45:37.567Z,6.50
2022-11-13T04:48:04.329Z,6.50
2022-11-13T04:50:31.233Z,6.50
2022-11-13T04:52:57.791Z,6.50
2022-11-13T04:55:24.533Z,6.50
2022-11-13T04:57:55.306Z,6.50
2022-11-13T05:00:22.619Z,6.50
2022-11-13T05:02:49.282Z,6.50
2022-11-13T05:05:16.044Z,6.60
2022-11-13T05:07:42.771Z,6.60
2022-11-13T05:10:09.680Z,6.60
2022-11-13T05:12:36.249Z,6.60
2022-11-13T05:15:03.242Z,6.60
2022-11-13T05:17:29.869Z,6.50
2022-11-13T05:19:56.778Z,6.40
2022-11-13T05:22:23.412Z,6.40
2022-11-13T05:24:50.000Z,6.30
2022-11-13T05:27:17.706Z,6.30
2022-11-13T05:29:45.670Z,6.40
2022-11-13T05:32:12.538Z,6.50
2022-11-13T05:34:39.210Z,6.40
2022-11-13T05:37:05.832Z,6.40
2022-11-13T05:39:32.407Z,6.30
2022-11-13T05:41:59.041Z,6.40
2022-11-13T05:44:25.631Z,6.30
2022-11-13T05:46:52.241Z,6.30
2022-11-13T05:49:19.093Z,6.20
2022-11-13T05:51:45.714Z,6.20
2022-11-13T05:54:12.615Z,6.30
2022-11-13T05:56:40.819Z,6.30
2022-11-13T05:59:08.816Z,6.20
2022-11-13T06:01:37.697Z,6.20
2022-11-13T06:04:06.024Z,6.20
2022-11-13T06:06:33.581Z,6.10
2022-11-13T06:09:02.260Z,6.10
2022-11-13T06:11:30.137Z,6.10
2022-11-13T06:13:58.407Z,6.20
2022-11-13T06:16:28.567Z,6.00
2022-11-13T06:18:57.765Z,6.00
2022-11-13T07:34:21.629Z,6.00
2022-11-13T07:36:48.258Z,5.90
2022-11-13T07:39:15.011Z,6.00
2022-11-13T07:41:41.698Z,6.00
2022-11-13T07:44:09.577Z,6.00
2022-11-13T07:46:36.681Z,6.00
2022-11-13T07:49:03.361Z,6.00
2022-11-13T07:51:29.915Z,6.00
2022-11-13T07:53:56.861Z,6.00
2022-11-13T07:56:25.302Z,6.00
2022-11-13T07:58:51.917Z,6.10
2022-11-13T08:01:18.555Z,6.10
2022-11-13T08:03:45.299Z,6.00
2022-11-13T08:06:11.886Z,6.10
2022-11-13T08:08:38.513Z,6.20
2022-11-13T08:11:11.651Z,6.20
2022-11-13T08:13:38.516Z,6.20
2022-11-13T08:16:05.909Z,6.30
2022-11-13T08:18:41.615Z,6.30
2022-11-13T08:21:14.493Z,6.30
2022-11-13T08:23:42.623Z,6.20
2022-11-13T08:26:10.057Z,6.30
2022-11-13T08:28:36.715Z,6.30
2022-11-13T08:31:03.544Z,6.40
2022-11-13T08:33:30.539Z,6.30
2022-11-13T08:35:59.432Z,6.40
2022-11-13T08:38:26.800Z,6.40
2022-11-13T08:41:03.249Z,6.50
2022-11-13T08:43:33.954Z,6.40
2022-11-13T08:46:00.776Z,6.40
2022-11-13T08:48:27.676Z,6.30
2022-11-13T08:50:55.796Z,6.30
2022-11-13T08:53:23.761Z,6.20
2022-11-13T08:55:50.788Z,6.20
2022-11-13T08:58:17.727Z,6.30
2022-11-13T09:00:44.305Z,6.20
2022-11-13T09:03:12.246Z,6.10
2022-11-13T09:05:38.868Z,6.10
2022-11-13T09:08:06.132Z,6.10
2022-11-13T09:10:33.275Z,6.20
2022-11-13T09:13:03.285Z,6.10
2022-11-13T09:15:31.583Z,6.10
2022-11-13T09:17:59.489Z,6.10
2022-11-13T09:20:27.672Z,6.10
2022-11-13T09:23:03.030Z,6.10
2022-11-13T09:25:36.880Z,6.20
2022-11-13T09:28:05.141Z,6.30
2022-11-13T09:30:31.783Z,6.30
2022-11-13T09:33:00.421Z,6.40
2022-11-13T09:35:34.485Z,6.50
2022-11-13T09:38:13.175Z,6.60
2022-11-13T09:40:52.908Z,6.60
2022-11-13T09:43:40.482Z,6.60
2022-11-13T09:46:36.885Z,6.70
2022-11-13T09:49:34.729Z,6.70
2022-11-13T09:52:09.683Z,6.70
2022-11-13T09:54:36.343Z,6.80
2022-11-13T09:57:54.049Z,6.80
2022-11-13T10:00:22.084Z,6.90
2022-11-13T10:03:12.556Z,7.00
2022-11-13T10:05:52.541Z,7.10
2022-11-13T10:08:47.169Z,7.00
2022-11-13T10:11:34.908Z,7.10
2022-11-13T10:14:10.305Z,7.20
2022-11-13T10:16:45.856Z,7.20
2022-11-13T10:19:23.931Z,7.30
2022-11-13T10:22:19.697Z,7.30
2022-11-13T10:24:46.406Z,7.40
2022-11-13T10:27:15.168Z,7.40
2022-11-13T10:29:47.747Z,7.40
2022-11-13T10:32:20.915Z,7.40
2022-11-13T10:34:56.507Z,7.40
2022-11-13T10:37:25.798Z,7.30
2022-11-13T10:39:52.455Z,7.40
2022-11-13T10:42:32.199Z,7.40
2022-11-13T10:45:00.404Z,7.40
2022-11-13T10:47:57.285Z,7.50
2022-11-13T10:50:39.886Z,7.50
2022-11-13T10:53:17.113Z,7.50
2022-11-13T10:55:45.300Z,7.50
2022-11-13T10:58:18.077Z,7.50
2022-11-13T11:00:48.875Z,7.50
2022-11-13T11:03:24.224Z,7.60
2022-11-13T11:06:05.200Z,7.60
2022-11-13T11:08:34.382Z,7.70
2022-11-13T11:11:21.846Z,7.70
2022-11-13T11:13:48.724Z,7.60
2022-11-13T11:16:20.890Z,7.60
2022-11-13T11:19:08.993Z,7.60
2022-11-13T11:21:37.423Z,7.70
2022-11-13T11:24:14.164Z,7.60
2022-11-13T11:27:17.109Z,7.60
2022-11-13T11:30:05.037Z,7.70
2022-11-13T11:32:37.342Z,7.80
2022-11-13T11:35:12.909Z,7.80
2022-11-13T11:38:07.355Z,7.90
2022-11-13T11:40:41.054Z,7.90
2022-11-13T11:43:37.510Z,7.90
2022-11-13T11:46:04.205Z,7.90
2022-11-13T11:48:33.006Z,7.90
2022-11-13T11:51:17.764Z,7.90
2022-11-13T11:54:00.135Z,7.90
2022-11-13T11:56:39.398Z,7.90
2022-11-13T11:59:12.585Z,7.80
2022-11-13T12:01:57.108Z,7.90
2022-11-13T12:04:35.719Z,7.90
2022-11-13T12:07:02.522Z,8.00
2022-11-13T12:09:33.271Z,8.00
2022-11-13T12:12:19.884Z,8.10
2022-11-13T12:15:23.693Z,8.10
2022-11-13T12:18:36.666Z,8.10
2022-11-13T12:21:30.112Z,8.10
2022-11-13T12:24:21.015Z,8.20
2022-11-13T12:27:10.338Z,8.20
2022-11-13T12:29:58.737Z,8.30
2022-11-13T12:32:38.155Z,8.40
2022-11-13T12:35:13.953Z,8.30
2022-11-13T12:38:06.809Z,8.40
2022-11-13T12:41:03.463Z,8.40
2022-11-13T12:43:57.042Z,8.40
2022-11-13T12:46:34.692Z,8.40
2022-11-13T12:49:01.799Z,8.40
2022-11-13T12:51:39.565Z,8.50
2022-11-13T12:54:06.478Z,8.50
2022-11-13T12:56:34.128Z,8.50
2022-11-13T12:59:35.581Z,8.50
2022-11-13T13:02:08.694Z,8.50
2022-11-13T13:05:01.787Z,8.60
2022-11-13T13:08:04.932Z,8.50
2022-11-13T13:10:46.827Z,8.50
2022-11-13T13:13:28.503Z,8.50
2022-11-13T13:16:02.714Z,8.50
2022-11-13T13:18:31.856Z,8.50
2022-11-13T13:21:12.028Z,8.60
2022-11-13T13:23:40.421Z,8.60
2022-11-13T13:26:15.538Z,8.60
2022-11-13T13:29:03.375Z,8.60
2022-11-13T13:32:12.174Z,8.60
2022-11-13T13:35:03.857Z,8.60
2022-11-13T13:37:58.403Z,8.60
2022-11-13T13:40:41.148Z,8.60
2022-11-13T13:43:19.587Z,8.60
2022-11-13T13:45:58.176Z,8.60
2022-11-13T13:48:27.727Z,8.60
2022-11-13T13:50:55.151Z,8.50
2022-11-13T13:53:30.221Z,8.50
2022-11-13T13:55:58.680Z,8.50
2022-11-13T13:58:32.531Z,8.50
2022-11-13T14:01:22.484Z,8.50
2022-11-13T14:03:49.133Z,8.50
2022-11-13T14:06:24.116Z,8.40
2022-11-13T14:08:50.732Z,8.40
2022-11-13T14:11:26.822Z,8.40
2022-11-13T14:13:53.392Z,8.40
2022-11-13T14:16:19.980Z,8.40
2022-11-13T14:18:46.605Z,8.40
2022-11-13T14:21:23.283Z,8.40
2022-11-13T14:23:52.253Z,8.50
2022-11-13T14:26:19.926Z,8.50
2022-11-13T14:28:59.741Z,8.40
2022-11-13T14:31:29.876Z,8.40
2022-11-13T14:33:59.693Z,8.40
2022-11-13T14:36:31.376Z,8.40
2022-11-13T14:38:58.843Z,8.40
2022-11-13T14:41:45.652Z,8.40
2022-11-13T14:44:12.686Z,8.50
2022-11-13T14:46:45.636Z,8.50
2022-11-13T14:49:15.535Z,8.50
2022-11-13T14:51:42.311Z,8.50
2022-11-13T14:54:53.285Z,8.60
2022-11-13T14:57:18.550Z,8.50
2022-11-13T14:59:45.635Z,8.50
2022-11-13T15:02:13.105Z,8.50
2022-11-13T15:04:40.722Z,8.50
2022-11-13T15:07:29.421Z,8.50
2022-11-13T15:09:57.315Z,8.50
2022-11-13T15:12:23.950Z,8.50
2022-11-13T15:14:51.318Z,8.50
2022-11-13T15:17:20.894Z,8.50
2022-11-13T15:19:51.373Z,8.50
2022-11-13T15:22:27.180Z,8.50
2022-11-13T15:24:54.905Z,8.50
2022-11-13T15:27:21.576Z,8.50
2022-11-13T15:29:48.183Z,8.50
2022-11-13T15:32:16.121Z,8.50
2022-11-13T15:34:43.152Z,8.50
2022-11-13T15:37:15.359Z,8.40
2022-11-13T15:39:42.324Z,8.40
2022-11-13T15:42:16.140Z,8.40
2022-11-13T15:44:42.736Z,8.40
2022-11-13T15:47:26.416Z,8.40
2022-11-13T15:50:12.472Z,8.40
2022-11-13T15:52:41.425Z,8.40
2022-11-13T15:55:20.431Z,8.40
2022-11-13T15:57:47.111Z,8.50
2022-11-13T16:00:21.660Z,8.40
2022-11-13T16:02:50.756Z,8.40
2022-11-13T16:05:17.899Z,8.40
2022-11-13T16:07:44.504Z,8.40
2022-11-13T16:10:11.498Z,8.40
2022-11-13T16:12:38.174Z,8.40
2022-11-13T16:15:05.295Z,8.40
2022-11-13T16:17:38.253Z,8.40
2022-11-13T16:20:07.848Z,8.40
2022-11-13T16:22:34.446Z,8.40
2022-11-13T16:25:01.094Z,8.40
2022-11-13T16:27:30.579Z,8.30
2022-11-13T16:29:59.944Z,8.40
2022-11-13T16:32:28.941Z,8.30
2022-11-13T16:34:55.532Z,8.40
2022-11-13T16:37:23.957Z,8.40
2022-11-13T16:39:50.876Z,8.30
2022-11-13T16:42:17.735Z,8.40
2022-11-13T16:44:44.481Z,8.40
2022-11-13T16:47:22.411Z,8.40
2022-11-13T16:49:49.463Z,8.40
2022-11-13T16:52:16.748Z,8.30
2022-11-13T16:54:43.536Z,8.20
2022-11-13T16:57:12.200Z,8.20
2022-11-13T16:59:38.891Z,8.20
2022-11-13T17:02:14.454Z,8.10
2022-11-13T17:04:41.320Z,8.10
2022-11-13T17:07:12.848Z,8.10
2022-11-13T17:09:41.527Z,8.10
2022-11-13T17:12:09.534Z,8.20
2022-11-13T17:14:36.355Z,8.20
2022-11-13T17:17:04.205Z,8.20
2022-11-13T17:19:31.105Z,8.20
2022-11-13T17:21:58.218Z,8.20
2022-11-13T17:24:24.843Z,8.20
2022-11-13T17:26:51.429Z,8.20
2022-11-13T17:29:18.002Z,8.20
2022-11-13T17:31:44.641Z,8.30
2022-11-13T17:34:11.334Z,8.30
2022-11-13T17:36:38.004Z,8.20
2022-11-13T17:39:04.634Z,8.30
2022-11-13T17:41:31.248Z,8.30
2022-11-13T17:44:01.355Z,8.30
2022-11-13T17:46:28.244Z,8.20
2022-11-13T17:48:55.009Z,8.10
2022-11-13T17:51:21.795Z,8.00
2022-11-13T17:53:48.366Z,8.00
2022-11-13T17:56:15.291Z,8.00
2022-11-13T17:58:43.768Z,8.00
2022-11-13T18:01:16.135Z,8.00
2022-11-13T18:03:43.151Z,8.10
2022-11-13T18:06:13.614Z,8.10
2022-11-13T18:08:42.719Z,8.10
2022-11-13T18:11:12.220Z,8.20
2022-11-13T18:13:38.914Z,8.10
2022-11-13T18:16:07.860Z,8.00
2022-11-13T18:18:35.266Z,8.00
2022-11-13T18:21:22.753Z,8.00
2022-11-13T18:23:50.026Z,8.10
2022-11-13T18:26:18.923Z,8.10
2022-11-13T18:28:45.582Z,8.10
2022-11-13T18:31:15.575Z,8.20
2022-11-13T18:33:42.354Z,8.20
2022-11-13T18:36:09.700Z,8.20
2022-11-13T18:38:36.752Z,8.20
2022-11-13T18:41:08.844Z,8.30
2022-11-13T18:43:36.073Z,8.20
2022-11-13T18:46:05.475Z,8.20
2022-11-13T18:48:33.956Z,8.20
2022-11-13T18:51:06.385Z,8.20
2022-11-13T18:53:33.288Z,8.20
2022-11-13T18:56:01.429Z,8.20
2022-11-13T18:58:28.334Z,8.10
2022-11-13T19:00:55.209Z,8.10
2022-11-13T19:03:22.865Z,8.10
2022-11-13T19:05:50.384Z,8.00
2022-11-13T19:08:17.085Z,8.00
2022-11-13T19:10:43.703Z,7.90
2022-11-13T19:13:10.432Z,7.90
2022-11-13T19:15:38.401Z,8.00
2022-11-13T19:18:06.791Z,8.00
2022-11-13T19:20:33.987Z,8.00
2022-11-13T19:23:03.952Z,7.90
2022-11-13T19:25:33.103Z,7.90
2022-11-13T19:27:59.676Z,7.90
2022-11-13T19:30:27.190Z,7.90
2022-11-13T19:32:53.768Z,7.80
2022-11-13T19:35:20.600Z,7.80
2022-11-13T19:37:47.159Z,7.80
2022-11-13T19:40:13.748Z,7.80
2022-11-13T19:42:41.973Z,7.90
2022-11-13T19:45:09.069Z,7.90
2022-11-13T19:47:35.678Z,7.90
2022-11-13T19:50:02.298Z,7.90
2022-11-13T19:52:28.857Z,7.80
2022-11-13T19:54:55.512Z,7.80
2022-11-13T19:57:22.084Z,7.80
2022-11-13T19:59:48.740Z,7.80
2022-11-13T20:02:15.392Z,7.80
2022-11-13T20:04:41.969Z,7.70
2022-11-13T20:07:11.138Z,7.70
2022-11-13T20:09:37.985Z,7.60
2022-11-13T20:12:04.937Z,7.60
2022-11-13T20:14:36.998Z,7.50
2022-11-13T20:17:04.918Z,7.50
2022-11-13T20:19:31.525Z,7.50
2022-11-13T20:21:58.163Z,7.60
2022-11-13T20:24:24.794Z,7.60
2022-11-13T20:26:51.348Z,7.50
2022-11-13T20:29:17.974Z,7.60
2022-11-13T20:31:44.668Z,7.60
2022-11-13T20:34:11.311Z,7.70
2022-11-13T20:36:37.929Z,7.70
2022-11-13T20:39:09.180Z,7.70
2022-11-13T20:41:36.559Z,7.70
2022-11-13T20:44:03.387Z,7.70
2022-11-13T20:46:30.629Z,7.70
2022-11-13T20:48:57.272Z,7.70
2022-11-13T20:51:26.256Z,7.70
2022-11-13T20:53:53.398Z,7.70
2022-11-13T20:56:21.832Z,7.70
2022-11-13T20:58:49.304Z,7.70
2022-11-13T21:01:18.575Z,7.70
2022-11-13T21:03:46.143Z,7.60
2022-11-13T21:06:16.340Z,7.60
2022-11-13T21:08:43.416Z,7.50
2022-11-13T21:11:14.979Z,7.50
2022-11-13T21:13:41.794Z,7.50
2022-11-13T21:16:09.553Z,7.40
2022-11-13T21:18:36.170Z,7.30
2022-11-13T21:21:11.881Z,7.30
2022-11-13T21:23:38.687Z,7.30
2022-11-13T21:26:07.214Z,7.30
2022-11-13T21:28:34.380Z,7.20
2022-11-13T21:31:06.850Z,7.20
2022-11-13T21:33:38.100Z,7.10
2022-11-13T21:36:10.012Z,7.20
2022-11-13T21:38:36.828Z,7.20
2022-11-13T21:41:21.269Z,7.10
2022-11-13T21:44:00.631Z,7.10
2022-11-13T21:46:32.049Z,7.10
2022-11-13T21:49:02.318Z,7.20
2022-11-13T21:51:29.996Z,7.30
2022-11-13T21:53:57.125Z,7.30
2022-11-13T21:56:25.254Z,7.30
2022-11-13T21:58:52.190Z,7.30
2022-11-13T22:01:19.507Z,7.20
2022-11-13T22:03:46.140Z,7.30
2022-11-13T22:06:18.004Z,7.30
2022-11-13T22:08:46.208Z,7.20
2022-11-13T22:11:13.358Z,7.20
2022-11-13T22:13:40.229Z,7.20
2022-11-13T22:16:08.384Z,7.20
2022-11-13T22:18:34.969Z,7.30
2022-11-13T22:21:07.492Z,7.30
2022-11-13T22:23:34.941Z,7.30
2022-11-13T22:26:03.328Z,7.40
2022-11-13T22:28:31.723Z,7.30
2022-11-13T22:30:58.793Z,7.30
2022-11-13T22:33:30.055Z,7.30
2022-11-13T22:36:08.051Z,7.20
2022-11-13T22:38:36.096Z,7.20
2022-11-13T22:41:05.047Z,7.10
2022-11-13T22:43:40.425Z,7.10
2022-11-13T22:46:09.476Z,7.10
2022-11-13T22:48:37.844Z,7.10
2022-11-13T22:51:09.365Z,7.00
2022-11-13T22:53:36.421Z,7.00
2022-11-13T22:56:14.473Z,7.00
2022-11-13T22:58:41.395Z,6.90
2022-11-13T23:01:22.510Z,6.80
2022-11-13T23:03:50.561Z,6.80
2022-11-13T23:06:20.610Z,6.80
2022-11-13T23:08:47.756Z,6.70
2022-11-13T23:11:18.257Z,6.70
2022-11-13T23:13:50.301Z,6.70
2022-11-13T23:16:18.147Z,6.70
2022-11-13T23:18:45.249Z,6.70
2022-11-13T23:21:13.223Z,6.70
2022-11-13T23:23:40.181Z,6.70
2022-11-13T23:26:08.133Z,6.70
2022-11-13T23:28:35.359Z,6.80
2022-11-13T23:31:01.978Z,6.80
2022-11-13T23:33:29.332Z,6.80
2022-11-13T23:35:56.188Z,6.70
2022-11-13T23:38:23.066Z,6.70
2022-11-13T23:40:54.507Z,6.70
2022-11-13T23:43:21.910Z,6.70
2022-11-13T23:45:48.584Z,6.70
2022-11-13T23:48:15.743Z,6.70
2022-11-13T23:50:42.605Z,6.60
2022-11-13T23:53:09.586Z,6.60
2022-11-13T23:55:38.787Z,6.50
2022-11-13T23:58:06.940Z,6.50
